Hicks Airfield Weather

No METAR data is available for Hicks Airfield, and nearby Alliance Airport's METAR data is commonly used by area pilots. Weather infomation is also available on 126.925 mhz.

  • Current KAFW METAR
    (5.8nm NE) VFR
    Raw Text: KAFW 250253Z 14004KT 10SM SCT240 23/08 A3003 RMK AO2 SLP159 T02330083 53010
    Wind: 140° @ 4kts
    Visibility: 10.0sm
    Clouds (AGL): SCT at 24000ft
    Temperature: 23.3°C
    Dew Point: 8.3°C
    Altimeter: 30.03 inHg
  • Current KAFW TAF
    (5.8nm NE)
    Raw Text: KAFW 250252Z 2503/2524 18006KT P6SM FEW250